Time;durP1;ratioP1;P1;durP2;ratioP2;P2;SDS_P1;SDS_P2;PMS_P1;PMS_P2;Temp;Humidity;BMP_temperature;BMP_pressure;BME280_temperature;BME280_humidity;BME280_pressure;Samples;Min_cycle;Max_cycle;Signal;HPM_P1;HPM_P2
2024/03/26 00:02:25;;;;;;;67.82;12.40;;;;;;;2.83;100.00;96368.34;4947235;28;20082;-61
2024/03/26 00:04:50;;;;;;;193.05;160.90;;;;;;;2.80;100.00;96363.19;4948825;28;20070;-61
2024/03/26 00:07:16;;;;;;;85.60;44.47;;;;;;;2.82;100.00;96371.78;4950106;28;20149;-61
2024/03/26 00:09:42;;;;;;;61.95;11.98;;;;;;;2.83;100.00;96368.34;4950233;28;20027;-63
2024/03/26 00:12:07;;;;;;;126.22;76.07;;;;;;;2.77;100.00;96373.44;4949715;28;20085;-61
2024/03/26 00:14:32;;;;;;;58.35;18.55;;;;;;;2.77;100.00;96365.75;4948036;28;20473;-61
2024/03/26 00:16:58;;;;;;;83.15;34.15;;;;;;;2.78;100.00;96365.75;4947253;28;20428;-62
2024/03/26 00:19:23;;;;;;;52.95;11.77;;;;;;;2.72;100.00;96366.59;4949327;28;20054;-63
2024/03/26 00:21:48;;;;;;;66.32;22.08;;;;;;;2.60;100.00;96359.75;4945889;28;20134;-61
2024/03/26 00:24:13;;;;;;;80.22;22.73;;;;;;;2.59;100.00;96357.16;4949260;28;20053;-61
2024/03/26 00:26:39;;;;;;;46.00;14.20;;;;;;;2.58;100.00;96360.59;4979555;28;20046;-60
2024/03/26 00:29:04;;;;;;;90.57;41.60;;;;;;;2.56;100.00;96352.88;4950799;28;20023;-61
2024/03/26 00:31:33;;;;;;;103.13;55.78;;;;;;;2.53;100.00;96349.47;4949309;28;20039;-60
2024/03/26 00:34:03;;;;;;;82.35;34.90;;;;;;;2.50;100.00;96344.31;4947884;28;20041;-62
2024/03/26 00:36:30;;;;;;;139.20;112.28;;;;;;;2.57;100.00;96343.50;4949300;28;20143;-62
2024/03/26 00:38:55;;;;;;;61.75;14.25;;;;;;;2.61;100.00;96342.66;4950996;28;20042;-61
2024/03/26 00:41:20;;;;;;;62.42;11.15;;;;;;;2.53;100.00;96337.47;4948762;28;20106;-62
2024/03/26 00:43:46;;;;;;;102.82;69.18;;;;;;;2.47;100.00;96340.91;4950323;28;20482;-61
2024/03/26 00:46:11;;;;;;;151.88;103.30;;;;;;;2.49;100.00;96337.47;4950764;28;20054;-61
2024/03/26 00:48:37;;;;;;;65.22;33.30;;;;;;;2.50;100.00;96340.06;4977951;28;20026;-60
2024/03/26 00:51:02;;;;;;;227.57;154.43;;;;;;;2.49;100.00;96340.91;4949694;28;20055;-61
2024/03/26 00:53:28;;;;;;;63.58;16.67;;;;;;;2.47;100.00;96337.47;4948430;28;20316;-61
2024/03/26 00:55:53;;;;;;;49.92;8.55;;;;;;;2.49;100.00;96330.66;4947426;28;20332;-60
2024/03/26 00:58:18;;;;;;;93.28;47.72;;;;;;;2.49;100.00;96333.22;4948140;28;20453;-61
2024/03/26 01:00:44;;;;;;;43.70;9.50;;;;;;;2.41;100.00;96329.78;4949182;28;20269;-62
2024/03/26 01:03:09;;;;;;;68.07;13.88;;;;;;;2.42;100.00;96329.75;4948225;28;20335;-60
2024/03/26 01:05:34;;;;;;;70.70;22.30;;;;;;;2.37;100.00;96323.75;4948870;28;20567;-60
2024/03/26 01:08:00;;;;;;;56.10;10.20;;;;;;;2.41;100.00;96328.06;4947154;28;20078;-63
2024/03/26 01:10:25;;;;;;;74.25;14.57;;;;;;;2.34;100.00;96329.75;4947332;28;20074;-61
2024/03/26 01:12:50;;;;;;;68.00;28.02;;;;;;;2.37;100.00;96328.06;4979471;28;20133;-61
2024/03/26 01:15:16;;;;;;;83.95;27.10;;;;;;;2.42;100.00;96328.91;4948350;28;20030;-62
2024/03/26 01:17:42;;;;;;;79.90;37.53;;;;;;;2.31;100.00;96328.91;4948913;28;20038;-63
2024/03/26 01:20:07;;;;;;;164.43;107.18;;;;;;;2.36;100.00;96332.31;4948534;28;20388;-61
2024/03/26 01:22:33;;;;;;;113.53;63.55;;;;;;;2.38;100.00;96324.63;4967025;28;20058;-62
2024/03/26 01:24:58;;;;;;;101.15;49.95;;;;;;;2.39;100.00;96324.63;4966492;28;20046;-62
2024/03/26 01:27:23;;;;;;;65.00;32.65;;;;;;;2.31;100.00;96313.50;4967465;28;20039;-60
2024/03/26 01:29:49;;;;;;;61.63;20.52;;;;;;;2.29;100.00;96310.94;4967758;28;20319;-61
2024/03/26 01:32:14;;;;;;;142.60;90.10;;;;;;;2.36;100.00;96311.78;4967049;28;20046;-62
2024/03/26 01:34:39;;;;;;;64.53;13.68;;;;;;;2.34;100.00;96298.97;4971314;28;20014;-63
2024/03/26 01:37:05;;;;;;;51.15;9.40;;;;;;;2.31;100.00;96298.09;4971450;28;20049;-60
2024/03/26 01:39:30;;;;;;;69.30;21.60;;;;;;;2.29;100.00;96297.22;4972677;28;20065;-62
2024/03/26 01:41:55;;;;;;;72.25;31.02;;;;;;;2.17;100.00;96292.94;4970713;28;20129;-62
2024/03/26 01:44:21;;;;;;;57.88;22.42;;;;;;;2.20;100.00;96286.09;4972935;28;20119;-64
2024/03/26 01:46:46;;;;;;;103.53;66.80;;;;;;;2.25;100.00;96280.13;4972092;28;20268;-59
2024/03/26 01:49:14;;;;;;;106.75;54.78;;;;;;;2.21;100.00;96277.56;4971048;28;20105;-59
2024/03/26 01:51:42;;;;;;;85.95;49.78;;;;;;;2.23;100.00;96274.16;4969757;28;20042;-61
2024/03/26 01:54:07;;;;;;;119.15;49.10;;;;;;;2.20;100.00;96265.56;4970433;28;20026;-62
2024/03/26 01:56:33;;;;;;;208.65;182.90;;;;;;;2.18;100.00;96263.88;4971152;28;20138;-61
2024/03/26 01:58:59;;;;;;;123.13;78.00;;;;;;;2.20;100.00;96259.59;4970811;28;20882;-62
2024/03/26 02:01:27;;;;;;;175.73;134.00;;;;;;;2.16;100.00;96263.84;4969200;28;20062;-62
2024/03/26 02:03:53;;;;;;;203.23;176.55;;;;;;;2.15;100.00;96258.75;4970923;28;20479;-62
2024/03/26 02:06:19;;;;;;;106.80;63.38;;;;;;;2.02;100.00;96251.03;4970193;28;20042;-61
2024/03/26 02:08:45;;;;;;;71.30;16.10;;;;;;;2.01;100.00;96245.88;4970409;28;20022;-60
2024/03/26 02:11:11;;;;;;;101.22;51.47;;;;;;;1.99;100.00;96239.88;4969854;28;20078;-59
2024/03/26 02:13:36;;;;;;;193.88;153.77;;;;;;;1.98;100.00;96235.63;4970785;28;20136;-62
2024/03/26 02:16:01;;;;;;;75.65;19.17;;;;;;;2.02;100.00;96234.78;4970149;28;20153;-58
2024/03/26 02:18:27;;;;;;;55.78;9.02;;;;;;;2.10;100.00;96247.59;4969304;28;20030;-59
2024/03/26 02:20:52;;;;;;;73.93;15.05;;;;;;;1.98;100.00;96241.59;4969599;28;20186;-62
2024/03/26 02:23:21;;;;;;;99.88;35.80;;;;;;;1.97;100.00;96245.03;4971121;28;20445;-61
2024/03/26 02:25:47;;;;;;;46.38;10.68;;;;;;;1.94;100.00;96242.44;4970511;28;20502;-61
2024/03/26 02:28:12;;;;;;;78.10;26.90;;;;;;;1.93;100.00;96238.19;4969443;28;20035;-58
2024/03/26 02:30:38;;;;;;;92.60;37.90;;;;;;;1.98;100.00;96233.91;4969970;28;20046;-60
2024/03/26 02:33:03;;;;;;;52.97;11.60;;;;;;;1.95;100.00;96228.78;4970907;28;20019;-59
2024/03/26 02:35:29;;;;;;;67.78;9.85;;;;;;;1.92;100.00;96229.63;4969569;28;20050;-60
2024/03/26 02:37:54;;;;;;;52.03;14.55;;;;;;;1.88;100.00;96234.72;4971317;28;20400;-60
2024/03/26 02:40:20;;;;;;;112.82;91.20;;;;;;;1.87;100.00;96227.91;4970287;28;20023;-60
2024/03/26 02:42:47;;;;;;;62.10;9.57;;;;;;;1.76;100.00;96223.59;4968178;28;20061;-61
2024/03/26 02:45:12;;;;;;;94.68;43.92;;;;;;;1.69;100.00;96227.00;4969730;28;20034;-59
2024/03/26 02:47:38;;;;;;;55.85;8.85;;;;;;;1.77;100.00;96229.56;4968715;28;20026;-62
2024/03/26 02:50:03;;;;;;;56.25;9.77;;;;;;;1.67;100.00;96226.97;4969070;28;20125;-60
2024/03/26 02:52:29;;;;;;;58.60;9.07;;;;;;;1.59;100.00;96220.97;4969372;28;20482;-60
2024/03/26 02:54:54;;;;;;;67.88;21.75;;;;;;;1.52;100.00;96211.56;4969201;28;20030;-62
2024/03/26 02:57:20;;;;;;;155.73;95.75;;;;;;;1.49;100.00;96217.50;4968457;28;20050;-60
2024/03/26 02:59:45;;;;;;;54.08;12.98;;;;;;;1.53;100.00;96210.72;4970459;28;20022;-60
2024/03/26 03:02:10;;;;;;;77.63;13.85;;;;;;;1.53;100.00;96210.72;4968149;28;20057;-60
2024/03/26 03:04:35;;;;;;;55.92;11.75;;;;;;;1.51;100.00;96207.28;4968891;28;20031;-59
2024/03/26 03:07:01;;;;;;;55.35;8.90;;;;;;;1.48;100.00;96212.41;4968951;28;20049;-62
2024/03/26 03:09:26;;;;;;;63.10;13.32;;;;;;;1.52;100.00;96198.75;4969965;28;20117;-62
2024/03/26 03:11:51;;;;;;;64.47;11.02;;;;;;;1.40;100.00;96200.41;4969311;28;20034;-61
2024/03/26 03:14:17;;;;;;;62.90;9.43;;;;;;;1.40;100.00;96197.84;4969336;28;20077;-60
2024/03/26 03:16:42;;;;;;;116.80;83.90;;;;;;;1.36;100.00;96192.69;4968998;28;20129;-60
2024/03/26 03:19:07;;;;;;;104.28;49.85;;;;;;;1.32;100.00;96189.28;4967820;28;20026;-62
2024/03/26 03:21:33;;;;;;;41.58;8.38;;;;;;;1.40;100.00;96189.31;4969912;28;20124;-61
2024/03/26 03:23:58;;;;;;;50.65;12.10;;;;;;;1.31;100.00;96195.25;4969578;28;20387;-60
2024/03/26 03:26:23;;;;;;;71.65;9.82;;;;;;;1.27;100.00;96185.84;4970055;28;21530;-60
2024/03/26 03:28:49;;;;;;;51.60;9.10;;;;;;;1.28;100.00;96187.56;4968683;28;20247;-60
2024/03/26 03:31:14;;;;;;;71.63;17.33;;;;;;;1.22;100.00;96185.81;4968890;28;20579;-59
2024/03/26 03:33:39;;;;;;;63.83;8.93;;;;;;;1.22;100.00;96184.97;4970712;28;20034;-59
2024/03/26 03:36:05;;;;;;;51.22;19.75;;;;;;;1.16;100.00;96193.47;4968043;28;20046;-58
2024/03/26 03:38:30;;;;;;;110.20;86.50;;;;;;;1.24;100.00;96186.69;4970851;28;20480;-62
2024/03/26 03:40:55;;;;;;;56.72;10.13;;;;;;;1.30;100.00;96183.31;4970898;28;20046;-58
2024/03/26 03:43:20;;;;;;;85.18;12.43;;;;;;;1.27;100.00;96186.69;4967704;28;20557;-60
2024/03/26 03:45:46;;;;;;;67.72;15.55;;;;;;;1.30;100.00;96178.19;4967584;28;20072;-61
2024/03/26 03:48:11;;;;;;;157.07;113.00;;;;;;;1.24;100.00;96166.22;4967846;28;20117;-59
2024/03/26 03:50:36;;;;;;;144.85;96.15;;;;;;;1.32;100.00;96167.91;4968820;28;20038;-60
2024/03/26 03:53:02;;;;;;;84.80;36.20;;;;;;;1.37;100.00;96159.41;4968745;28;20029;-61
2024/03/26 03:55:29;;;;;;;76.38;31.17;;;;;;;1.40;100.00;96158.56;4966917;28;20540;-59
2024/03/26 03:57:55;;;;;;;62.10;19.98;;;;;;;1.38;100.00;96156.00;4966770;28;20404;-61
2024/03/26 04:00:20;;;;;;;158.75;92.60;;;;;;;1.23;100.00;96151.66;4966100;28;20080;-60
2024/03/26 04:02:45;;;;;;;67.55;26.05;;;;;;;1.28;100.00;96142.31;4968239;28;20113;-60
2024/03/26 04:05:11;;;;;;;126.07;79.88;;;;;;;1.25;100.00;96138.88;4968199;28;20046;-60
2024/03/26 04:07:36;;;;;;;175.32;123.13;;;;;;;1.30;100.00;96137.22;4968905;28;20133;-59
2024/03/26 04:10:03;;;;;;;53.00;18.52;;;;;;;1.31;100.00;96128.66;4967618;28;20031;-61
2024/03/26 04:12:28;;;;;;;69.95;20.63;;;;;;;1.28;100.00;96128.66;4967359;28;20038;-59
2024/03/26 04:14:53;;;;;;;306.83;257.85;;;;;;;1.24;100.00;96121.81;4968204;28;20042;-60
2024/03/26 04:17:19;;;;;;;315.88;281.30;;;;;;;1.18;100.00;96125.19;4966580;28;20042;-61
2024/03/26 04:19:44;;;;;;;181.05;136.75;;;;;;;1.20;100.00;96122.66;4968755;28;20018;-61
2024/03/26 04:22:10;;;;;;;136.10;92.05;;;;;;;1.16;100.00;96130.31;4967988;28;20497;-63
2024/03/26 04:24:35;;;;;;;183.70;149.57;;;;;;;1.15;100.00;96127.75;4966618;28;20231;-59
2024/03/26 04:27:01;;;;;;;221.20;174.80;;;;;;;1.24;100.00;96125.22;4948956;28;20036;-61
2024/03/26 04:29:27;;;;;;;103.35;48.83;;;;;;;1.38;100.00;96129.53;4947094;28;20574;-59
2024/03/26 04:31:52;;;;;;;280.67;252.20;;;;;;;1.33;100.00;96133.78;4949380;28;20039;-60
2024/03/26 04:34:17;;;;;;;165.02;116.97;;;;;;;1.25;100.00;96132.06;4949694;28;20027;-61
2024/03/26 04:36:43;;;;;;;156.55;117.10;;;;;;;1.22;100.00;96133.75;4981072;28;20390;-61
2024/03/26 04:39:09;;;;;;;78.40;45.10;;;;;;;1.28;100.00;96126.97;4949345;28;20073;-60
2024/03/26 04:41:35;;;;;;;103.10;72.32;;;;;;;1.29;100.00;96125.22;4947135;28;20043;-61
2024/03/26 04:44:00;;;;;;;154.77;113.18;;;;;;;1.27;100.00;96129.50;4949416;28;20104;-62
2024/03/26 04:46:25;;;;;;;117.43;59.63;;;;;;;1.17;100.00;96131.16;4947892;28;20486;-61
2024/03/26 04:48:51;;;;;;;49.08;14.43;;;;;;;1.19;100.00;96129.50;4949947;28;20077;-62
2024/03/26 04:51:16;;;;;;;97.50;25.13;;;;;;;1.24;100.00;96130.34;4949103;28;20130;-61
2024/03/26 04:53:42;;;;;;;92.85;65.90;;;;;;;1.30;100.00;96129.53;4948556;28;20041;-61
2024/03/26 04:56:07;;;;;;;55.95;10.50;;;;;;;1.26;100.00;96131.19;4947455;28;20382;-62
2024/03/26 04:58:32;;;;;;;67.03;10.90;;;;;;;1.25;100.00;96128.63;4946239;28;20335;-62
2024/03/26 05:00:58;;;;;;;88.28;47.63;;;;;;;1.32;100.00;96125.25;4948243;28;20106;-61
2024/03/26 05:03:23;;;;;;;208.15;157.98;;;;;;;1.39;100.00;96137.22;4949372;28;20459;-64
2024/03/26 05:05:48;;;;;;;288.63;257.92;;;;;;;1.37;100.00;96132.97;4947894;28;20077;-64
2024/03/26 05:08:14;;;;;;;323.38;289.15;;;;;;;1.37;100.00;96128.66;4952905;28;20034;-61
2024/03/26 05:10:39;;;;;;;80.55;46.33;;;;;;;1.53;100.00;96128.72;4951327;28;20047;-60
2024/03/26 05:13:04;;;;;;;62.50;12.40;;;;;;;1.55;100.00;96129.56;4952067;28;20042;-64
2024/03/26 05:15:32;;;;;;;184.20;145.02;;;;;;;1.61;100.00;96115.91;4950562;28;20113;-59
2024/03/26 05:17:58;;;;;;;50.17;10.43;;;;;;;1.72;100.00;96116.81;4953207;28;20027;-60
2024/03/26 05:20:23;;;;;;;106.97;27.35;;;;;;;1.73;100.00;96105.69;4949330;28;20439;-60
2024/03/26 05:22:48;;;;;;;88.07;51.30;;;;;;;1.86;100.00;96096.31;4983304;28;20031;-61
2024/03/26 05:25:14;;;;;;;58.83;11.73;;;;;;;2.00;100.00;96106.56;4952960;28;20074;-62
2024/03/26 05:27:39;;;;;;;65.97;17.35;;;;;;;2.18;100.00;96094.59;4951452;28;20027;-59
2024/03/26 05:30:05;;;;;;;93.50;51.80;;;;;;;2.89;100.00;96096.16;4953839;28;20419;-61
2024/03/26 05:32:30;;;;;;;69.05;28.30;;;;;;;3.82;100.00;96089.66;4950932;28;20097;-60
2024/03/26 05:34:56;;;;;;;69.25;20.50;;;;;;;4.65;100.00;96096.69;4951608;28;20101;-62
2024/03/26 05:37:22;;;;;;;79.10;16.65;;;;;;;5.42;100.00;96096.66;4952485;28;20082;-60
2024/03/26 05:39:47;;;;;;;60.97;11.85;;;;;;;6.23;100.00;96090.28;4952540;28;20055;-61
2024/03/26 05:42:12;;;;;;;55.20;10.25;;;;;;;6.14;100.00;96088.75;4950614;28;20090;-62
2024/03/26 05:44:38;;;;;;;36.90;9.45;;;;;;;6.46;100.00;96091.66;4952108;28;20073;-62
2024/03/26 05:47:03;;;;;;;66.32;11.18;;;;;;;6.49;100.00;96089.00;4947463;28;20047;-62
2024/03/26 05:49:28;;;;;;;83.03;12.18;;;;;;;8.00;100.00;96090.25;4951938;28;20715;-64
2024/03/26 05:51:54;;;;;;;46.75;9.38;;;;;;;8.45;98.64;96092.59;4950391;28;20039;-61
2024/03/26 05:54:19;;;;;;;93.53;13.35;;;;;;;8.05;94.76;96081.50;4949069;28;20114;-61
2024/03/26 05:56:44;;;;;;;46.72;9.77;;;;;;;8.76;90.67;96095.31;4949810;28;20049;-63
2024/03/26 05:59:10;;;;;;;51.22;12.45;;;;;;;8.38;85.18;96098.00;4951223;28;20105;-62
2024/03/26 06:01:35;;;;;;;39.58;8.23;;;;;;;8.47;89.14;96103.75;4948896;28;20164;-60
2024/03/26 06:04:00;;;;;;;44.95;8.43;;;;;;;8.17;86.07;96098.47;4951965;28;20022;-61
2024/03/26 06:06:25;;;;;;;81.30;10.50;;;;;;;7.91;88.85;96094.75;4950422;28;20039;-61
2024/03/26 06:08:51;;;;;;;48.40;9.27;;;;;;;8.22;91.94;96088.00;4949934;28;20023;-62
2024/03/26 06:11:16;;;;;;;49.03;10.70;;;;;;;8.90;86.40;96089.78;4948989;28;20048;-62
2024/03/26 06:13:42;;;;;;;49.45;8.27;;;;;;;10.38;75.24;96095.75;4982027;28;20044;-63
2024/03/26 06:16:09;;;;;;;47.55;8.82;;;;;;;10.74;67.61;96087.66;4951366;28;20039;-62
2024/03/26 06:18:35;;;;;;;37.53;7.88;;;;;;;11.23;63.63;96098.94;4949356;28;20446;-60
2024/03/26 06:21:00;;;;;;;36.67;7.18;;;;;;;12.38;56.21;96094.59;4946456;28;20039;-62
2024/03/26 06:23:26;;;;;;;73.60;10.00;;;;;;;11.93;55.64;96094.59;4947728;28;20339;-62
2024/03/26 06:25:52;;;;;;;35.28;7.53;;;;;;;11.74;57.03;96099.66;4949866;28;20070;-62
2024/03/26 06:28:18;;;;;;;61.10;9.07;;;;;;;10.99;58.95;96096.34;4948804;28;20049;-63
2024/03/26 06:30:44;;;;;;;38.95;7.53;;;;;;;12.73;54.25;96102.69;4949901;28;20443;-60
2024/03/26 06:33:11;;;;;;;28.45;6.53;;;;;;;12.83;50.62;96097.94;4950564;28;20030;-61
2024/03/26 06:35:39;;;;;;;30.45;7.20;;;;;;;13.13;49.78;96105.34;4948875;28;20465;-60
2024/03/26 06:38:06;;;;;;;38.65;7.38;;;;;;;12.83;50.17;96099.69;4950309;28;20118;-60
2024/03/26 06:40:32;;;;;;;67.88;9.73;;;;;;;12.07;51.03;96101.03;4949401;28;20040;-60
2024/03/26 06:42:57;;;;;;;35.45;8.00;;;;;;;12.41;51.21;96101.44;4950585;28;20015;-61
2024/03/26 06:45:23;;;;;;;63.83;9.30;;;;;;;13.35;48.96;96091.34;4948302;28;20546;-62
2024/03/26 06:47:48;;;;;;;27.55;6.97;;;;;;;14.39;47.51;96084.81;4949052;28;20019;-62
2024/03/26 06:50:13;;;;;;;39.17;7.55;;;;;;;15.47;44.43;96085.47;4949530;28;20039;-60
2024/03/26 06:52:39;;;;;;;33.85;7.47;;;;;;;16.98;41.91;96084.94;4948433;28;20069;-59
2024/03/26 06:55:04;;;;;;;38.05;6.80;;;;;;;18.02;38.61;96072.47;4951218;28;20905;-60
2024/03/26 06:57:31;;;;;;;64.15;9.82;;;;;;;19.18;38.05;96075.47;4948333;28;20384;-62
2024/03/26 06:59:58;;;;;;;29.33;6.65;;;;;;;19.18;38.05;96075.47;4949093;28;20033;-64
2024/03/26 07:02:23;;;;;;;52.85;8.15;;;;;;;20.79;34.02;96083.41;4946635;28;20050;-62
2024/03/26 07:04:49;;;;;;;36.53;6.80;;;;;;;18.17;36.34;96086.44;4949888;28;20264;-60
2024/03/26 07:07:15;;;;;;;25.25;6.07;;;;;;;20.65;34.20;96072.09;4948244;28;20126;-62
2024/03/26 07:09:40;;;;;;;25.60;6.10;;;;;;;22.62;32.10;96067.44;4948687;28;20033;-62
2024/03/26 07:12:07;;;;;;;43.08;7.05;;;;;;;18.30;34.59;96065.44;4949805;28;20161;-61
2024/03/26 07:14:33;;;;;;;56.90;8.55;;;;;;;18.92;34.40;96065.75;4947700;28;20026;-61
2024/03/26 07:16:58;;;;;;;31.73;6.53;;;;;;;20.27;33.96;96063.41;4949841;28;20047;-61
2024/03/26 07:19:24;;;;;;;54.08;8.35;;;;;;;19.74;33.69;96054.00;4946765;28;20035;-63
2024/03/26 07:21:49;;;;;;;28.83;6.20;;;;;;;19.80;34.80;96052.72;4948029;28;20126;-64
2024/03/26 07:24:14;;;;;;;29.90;6.38;;;;;;;21.05;32.54;96051.56;4947931;28;20089;-60
2024/03/26 07:26:40;;;;;;;40.53;6.43;;;;;;;20.99;32.47;96036.16;4948853;28;20045;-62
2024/03/26 07:29:05;;;;;;;31.58;6.55;;;;;;;22.54;31.66;96030.13;4948804;28;20034;-63
2024/03/26 07:31:30;;;;;;;50.72;8.00;;;;;;;22.18;30.51;96033.88;4946331;28;20047;-60
2024/03/26 07:33:56;;;;;;;31.45;6.97;;;;;;;23.35;28.70;96032.16;4949647;28;20403;-62
2024/03/26 07:36:21;;;;;;;48.90;7.53;;;;;;;22.26;29.95;96020.00;4947457;28;20071;-60
2024/03/26 07:38:46;;;;;;;25.85;6.05;;;;;;;22.54;30.19;96023.03;4949995;28;20030;-62
2024/03/26 07:41:12;;;;;;;26.02;5.57;;;;;;;24.50;27.96;96021.19;4948766;28;20066;-60
2024/03/26 07:43:37;;;;;;;29.35;5.80;;;;;;;21.14;30.58;96019.13;4948064;28;20042;-61
2024/03/26 07:46:02;;;;;;;38.22;6.18;;;;;;;18.38;33.29;96029.88;4948273;28;20102;-62
2024/03/26 07:48:29;;;;;;;54.75;7.68;;;;;;;22.13;31.61;96014.91;4946769;28;20062;-61
2024/03/26 07:50:54;;;;;;;26.77;6.03;;;;;;;26.20;26.91;96012.44;4949311;28;20054;-61
2024/03/26 07:53:19;;;;;;;31.23;6.32;;;;;;;21.37;30.40;96013.81;4947196;28;20571;-63
2024/03/26 07:55:44;;;;;;;30.60;6.50;;;;;;;21.23;31.30;96016.72;4948538;28;20051;-62
2024/03/26 07:58:10;;;;;;;25.35;5.80;;;;;;;21.42;30.46;96001.06;4947746;28;20089;-62
2024/03/26 08:00:35;;;;;;;56.00;7.95;;;;;;;19.77;32.17;95997.53;4948102;28;21171;-62
2024/03/26 08:03:01;;;;;;;34.65;6.68;;;;;;;21.68;31.05;95990.19;4950681;28;20030;-62
2024/03/26 08:05:26;;;;;;;58.38;8.32;;;;;;;24.44;28.15;95984.56;4946710;28;20046;-62
2024/03/26 08:07:53;;;;;;;38.15;6.70;;;;;;;23.34;28.41;95988.06;4947526;28;20062;-62
2024/03/26 08:10:18;;;;;;;40.85;7.05;;;;;;;22.92;29.29;95983.66;4948258;28;20090;-63
2024/03/26 08:12:45;;;;;;;29.88;6.22;;;;;;;25.77;26.62;95981.06;4935271;28;20054;-63
2024/03/26 08:15:11;;;;;;;32.05;6.13;;;;;;;27.61;25.08;95973.38;4948739;28;20038;-62
2024/03/26 08:17:36;;;;;;;43.33;6.45;;;;;;;25.57;25.51;95962.53;4945561;28;20041;-61
2024/03/26 08:20:02;;;;;;;41.45;6.85;;;;;;;25.79;25.89;95967.59;4946633;28;20504;-63
2024/03/26 08:22:27;;;;;;;52.65;8.18;;;;;;;24.61;26.71;95966.22;4945309;28;20046;-63
2024/03/26 08:24:53;;;;;;;29.27;6.65;;;;;;;22.29;28.24;95960.66;4951015;28;20462;-61
2024/03/26 08:27:18;;;;;;;36.28;6.63;;;;;;;19.32;31.55;95971.75;4948886;28;20186;-61
2024/03/26 08:29:43;;;;;;;39.40;6.75;;;;;;;18.41;32.35;95961.28;4949026;28;20785;-60
2024/03/26 08:32:09;;;;;;;36.15;6.20;;;;;;;18.06;32.99;95958.22;4946281;28;20035;-60
2024/03/26 08:34:34;;;;;;;54.53;7.25;;;;;;;18.64;32.84;95951.81;4945713;28;20034;-61
2024/03/26 08:37:00;;;;;;;46.42;13.25;;;;;;;17.92;33.82;95953.03;4947453;28;20092;-62
2024/03/26 08:39:25;;;;;;;68.03;8.25;;;;;;;20.42;31.31;95937.34;4946051;28;20496;-61
2024/03/26 08:41:50;;;;;;;30.23;6.32;;;;;;;19.10;31.46;95931.97;4946108;28;20522;-60
2024/03/26 08:44:16;;;;;;;43.72;7.10;;;;;;;17.08;34.15;95929.47;4949409;28;20035;-61
2024/03/26 08:46:42;;;;;;;31.60;5.65;;;;;;;18.29;33.54;95926.09;4947106;28;20037;-62
2024/03/26 08:49:07;;;;;;;34.55;6.30;;;;;;;18.52;32.86;95915.78;4948088;28;20773;-60
2024/03/26 08:51:32;;;;;;;72.60;9.18;;;;;;;17.38;34.78;95915.31;4945134;28;20348;-60
2024/03/26 08:53:58;;;;;;;45.67;11.35;;;;;;;17.71;33.34;95921.97;4947843;28;20031;-60
2024/03/26 08:56:24;;;;;;;44.85;6.60;;;;;;;17.09;35.58;95926.75;4941287;28;20056;-62
2024/03/26 08:58:53;;;;;;;46.60;7.05;;;;;;;16.83;35.97;95921.31;4946046;28;20467;-59
2024/03/26 09:01:19;;;;;;;31.30;5.70;;;;;;;18.24;34.66;95922.94;4946026;28;20395;-62
2024/03/26 09:03:44;;;;;;;31.23;5.80;;;;;;;17.69;35.28;95919.44;4943786;28;20506;-59
2024/03/26 09:06:10;;;;;;;52.08;7.22;;;;;;;17.21;35.84;95917.25;4946275;28;20109;-61
2024/03/26 09:08:35;;;;;;;64.03;7.85;;;;;;;18.25;34.75;95912.31;4943151;28;20415;-60
2024/03/26 09:11:01;;;;;;;39.85;6.07;;;;;;;18.16;34.63;95913.78;4944130;28;20068;-63
2024/03/26 09:13:26;;;;;;;79.38;9.05;;;;;;;17.11;35.65;95916.16;4942426;28;20023;-65
2024/03/26 09:15:52;;;;;;;50.38;7.50;;;;;;;16.74;35.72;95912.22;4944782;28;20495;-61
2024/03/26 09:18:17;;;;;;;52.17;7.32;;;;;;;17.27;35.96;95903.72;4945562;28;20031;-61
2024/03/26 09:20:43;;;;;;;55.17;7.35;;;;;;;17.85;35.38;95907.06;4944349;28;20054;-63
2024/03/26 09:23:08;;;;;;;52.83;7.07;;;;;;;18.16;34.61;95910.31;4946285;28;20579;-61
2024/03/26 09:25:33;;;;;;;81.35;9.13;;;;;;;18.47;34.64;95916.09;4942720;28;20688;-61
2024/03/26 09:28:00;;;;;;;56.83;7.97;;;;;;;18.58;33.56;95921.47;4946077;28;20374;-61
2024/03/26 09:30:27;;;;;;;74.75;12.70;;;;;;;18.61;33.31;95920.41;4943600;28;20066;-62
2024/03/26 09:32:53;;;;;;;46.92;6.68;;;;;;;17.83;34.59;95910.66;4944931;28;20323;-61
2024/03/26 09:35:19;;;;;;;53.58;7.93;;;;;;;17.29;35.01;95901.84;4945126;28;20250;-62
2024/03/26 09:37:45;;;;;;;62.15;7.82;;;;;;;17.48;35.47;95903.25;4946155;28;20038;-60
2024/03/26 09:40:11;;;;;;;45.60;6.60;;;;;;;17.09;35.55;95899.63;4945569;28;20042;-59
2024/03/26 09:42:39;;;;;;;94.10;10.02;;;;;;;17.21;35.93;95898.84;4943414;28;20046;-60
2024/03/26 09:45:07;;;;;;;43.33;6.20;;;;;;;17.14;35.75;95905.44;4975489;28;20481;-62
2024/03/26 09:47:34;;;;;;;76.95;9.38;;;;;;;16.21;36.52;95910.13;4942997;28;20015;-64
2024/03/26 09:50:02;;;;;;;42.33;6.97;;;;;;;15.81;37.61;95909.84;4941814;28;20027;-63
2024/03/26 09:52:33;;;;;;;58.83;7.70;;;;;;;14.90;38.89;95912.19;4942947;28;20610;-62
2024/03/26 09:55:00;;;;;;;73.20;8.93;;;;;;;14.65;39.49;95913.47;4948741;28;20066;-61
2024/03/26 09:57:27;;;;;;;60.80;7.97;;;;;;;14.69;39.67;95917.63;4946135;28;20054;-60
2024/03/26 09:59:53;;;;;;;70.88;8.45;;;;;;;13.98;41.05;95918.66;4947908;28;20018;-63
2024/03/26 10:02:20;;;;;;;66.72;8.02;;;;;;;13.83;41.80;95907.19;4947374;28;20523;-59
2024/03/26 10:04:46;;;;;;;52.00;8.43;;;;;;;14.27;41.39;95911.09;4948217;28;20399;-59
2024/03/26 10:07:11;;;;;;;69.40;20.38;;;;;;;14.74;40.70;95913.91;4949405;28;20320;-59
2024/03/26 10:09:37;;;;;;;89.38;12.52;;;;;;;14.30;41.05;95908.34;4946812;28;20086;-61
2024/03/26 10:12:04;;;;;;;49.78;7.22;;;;;;;14.54;41.75;95900.09;4948449;28;20038;-61
2024/03/26 10:14:29;;;;;;;77.68;9.82;;;;;;;14.62;40.78;95892.69;4947416;28;20027;-58
2024/03/26 10:16:57;;;;;;;47.28;6.97;;;;;;;15.32;40.35;95888.97;4945223;28;20031;-60
2024/03/26 10:19:23;;;;;;;41.25;6.65;;;;;;;15.52;40.39;95891.38;4949252;28;20109;-60
2024/03/26 10:21:48;;;;;;;41.38;6.50;;;;;;;16.04;38.83;95881.44;4944612;28;20361;-60
2024/03/26 10:24:14;;;;;;;39.92;6.88;;;;;;;15.89;38.65;95891.88;4947981;28;20030;-60
2024/03/26 10:26:39;;;;;;;61.47;7.95;;;;;;;16.03;39.28;95880.59;4977144;28;20886;-60
2024/03/26 10:29:05;;;;;;;47.55;7.28;;;;;;;15.99;38.97;95882.56;4947753;28;20455;-62
2024/03/26 10:31:30;;;;;;;66.90;8.38;;;;;;;16.52;38.71;95871.53;4946805;28;20070;-63
2024/03/26 10:33:56;;;;;;;38.42;6.05;;;;;;;17.17;37.79;95871.94;4947185;28;20079;-62
2024/03/26 10:36:22;;;;;;;43.83;6.78;;;;;;;16.83;37.89;95870.56;4944795;28;20035;-62
2024/03/26 10:38:53;;;;;;;49.53;7.05;;;;;;;17.37;37.65;95863.72;4946692;28;20061;-60
2024/03/26 10:41:24;;;;;;;53.70;7.20;;;;;;;16.89;37.80;95859.72;4947267;28;20149;-62
2024/03/26 10:43:51;;;;;;;52.03;7.22;;;;;;;16.12;38.67;95863.47;4946658;28;20027;-63
2024/03/26 10:46:17;;;;;;;45.95;8.15;;;;;;;16.75;37.94;95864.03;4945894;28;20597;-58
2024/03/26 10:48:44;;;;;;;94.57;12.70;;;;;;;16.06;38.88;95848.09;4945152;28;20497;-61
2024/03/26 10:51:11;;;;;;;39.30;6.53;;;;;;;15.42;39.62;95862.25;4978696;28;20554;-60
2024/03/26 10:53:38;;;;;;;67.53;11.75;;;;;;;15.56;40.46;95866.69;4946505;28;20034;-60
2024/03/26 10:56:05;;;;;;;52.42;6.82;;;;;;;15.66;40.06;95859.16;4947971;28;20229;-58
2024/03/26 10:58:31;;;;;;;60.63;9.05;;;;;;;15.82;39.86;95861.72;4946133;28;20118;-60
2024/03/26 11:00:57;;;;;;;58.63;8.10;;;;;;;16.33;39.57;95853.47;4945946;28;20041;-62
2024/03/26 11:03:24;;;;;;;40.30;6.50;;;;;;;16.55;39.10;95856.56;4945009;28;20034;-60
2024/03/26 11:05:49;;;;;;;49.72;7.05;;;;;;;16.48;38.74;95850.84;4944436;28;20078;-58
2024/03/26 11:08:16;;;;;;;42.03;9.73;;;;;;;15.74;39.50;95862.16;4946369;28;20207;-58
2024/03/26 11:10:57;;;;;;;76.38;8.95;;;;;;;16.00;39.09;95844.91;4943953;28;20535;-61
2024/03/26 11:13:27;;;;;;;34.78;6.03;;;;;;;17.67;37.76;95837.19;4946709;28;20543;-61